createdAt,value
2022-10-19T00:01:57.914Z,7.78
2022-10-19T00:04:24.267Z,4.93
2022-10-19T00:06:50.582Z,8.00
2022-10-19T00:09:19.245Z,10.02
2022-10-19T00:11:49.109Z,11.40
2022-10-19T00:14:19.976Z,10.30
2022-10-19T00:16:48.591Z,7.78
2022-10-19T00:19:18.654Z,9.32
2022-10-19T00:21:45.422Z,7.50
2022-10-19T00:24:11.886Z,7.20
2022-10-19T00:26:38.664Z,11.40
2022-10-19T00:29:06.176Z,8.00
2022-10-19T00:31:32.949Z,8.85
2022-10-19T00:33:59.401Z,7.10
2022-10-19T00:36:32.619Z,13.40
2022-10-19T00:39:00.355Z,9.45
2022-10-19T00:41:31.530Z,8.57
2022-10-19T00:44:01.635Z,11.63
2022-10-19T00:46:34.124Z,6.72
2022-10-19T00:49:05.957Z,12.10
2022-10-19T00:51:38.923Z,10.73
2022-10-19T00:54:06.809Z,10.00
2022-10-19T00:56:34.573Z,6.40
2022-10-19T00:59:04.482Z,12.55
2022-10-19T01:01:32.835Z,4.18
2022-10-19T01:03:59.826Z,8.50
2022-10-19T01:06:27.006Z,5.20
2022-10-19T01:08:53.439Z,14.90
2022-10-19T01:12:02.048Z,10.32
2022-10-19T01:14:45.224Z,7.30
2022-10-19T01:17:24.370Z,7.50
2022-10-19T01:20:09.447Z,7.00
2022-10-19T01:23:14.370Z,9.13
2022-10-19T01:25:51.504Z,8.85
2022-10-19T01:28:59.605Z,4.38
2022-10-19T01:31:28.804Z,11.35
2022-10-19T01:34:02.570Z,9.80
2022-10-19T01:36:39.653Z,13.25
2022-10-19T01:39:17.460Z,9.30
2022-10-19T01:41:56.316Z,8.98
2022-10-19T01:44:43.738Z,4.05
2022-10-19T01:47:18.635Z,14.40
2022-10-19T01:49:54.373Z,9.43
2022-10-19T01:52:23.396Z,12.25
2022-10-19T01:54:54.257Z,7.97
2022-10-19T01:57:26.394Z,9.23
2022-10-19T01:59:54.583Z,9.80
2022-10-19T02:02:23.784Z,5.60
2022-10-19T02:04:51.774Z,9.23
2022-10-19T02:07:22.604Z,9.07
2022-10-19T02:09:49.059Z,7.65
2022-10-19T02:12:16.801Z,3.78
2022-10-19T02:14:47.345Z,7.90
2022-10-19T02:17:16.843Z,8.23
2022-10-19T02:19:43.759Z,5.82
2022-10-19T02:22:11.542Z,6.88
2022-10-19T02:24:37.894Z,4.28
2022-10-19T02:27:06.351Z,8.45
2022-10-19T02:29:34.546Z,5.10
2022-10-19T02:32:01.702Z,8.05
2022-10-19T02:34:28.473Z,11.48
2022-10-19T02:36:55.614Z,7.03
2022-10-19T02:39:22.406Z,6.72
2022-10-19T02:41:55.958Z,5.28
2022-10-19T02:44:39.981Z,11.57
2022-10-19T02:47:20.084Z,12.82
2022-10-19T02:49:47.571Z,11.38
2022-10-19T02:52:14.437Z,11.65
2022-10-19T02:54:43.712Z,11.50
2022-10-19T02:57:19.830Z,7.30
2022-10-19T02:59:46.632Z,7.25
2022-10-19T03:02:14.156Z,8.63
2022-10-19T03:04:41.770Z,7.93
2022-10-19T03:07:10.469Z,10.38
2022-10-19T03:09:37.011Z,9.98
2022-10-19T03:12:03.642Z,9.88
2022-10-19T03:14:29.996Z,8.55
2022-10-19T03:16:56.457Z,6.10
2022-10-19T03:19:23.115Z,6.95
2022-10-19T03:21:49.556Z,9.15
2022-10-19T03:24:16.264Z,6.80
2022-10-19T03:26:42.699Z,8.13
2022-10-19T03:29:09.089Z,7.88
2022-10-19T03:31:35.504Z,6.03
2022-10-19T03:34:02.153Z,7.00
2022-10-19T03:36:31.312Z,14.77
2022-10-19T03:39:00.405Z,5.88
2022-10-19T03:41:31.525Z,6.20
2022-10-19T03:43:58.101Z,10.70
2022-10-19T03:46:24.601Z,11.90
2022-10-19T03:48:51.100Z,10.80
2022-10-19T03:51:20.209Z,11.48
2022-10-19T03:53:46.837Z,12.23
2022-10-19T03:56:15.509Z,5.13
2022-10-19T03:58:43.438Z,2.72
2022-10-19T04:01:16.818Z,6.72
2022-10-19T04:03:44.141Z,6.43
2022-10-19T04:06:16.956Z,7.25
2022-10-19T04:08:49.044Z,12.23
2022-10-19T04:11:22.413Z,6.75
2022-10-19T04:13:52.866Z,3.13
2022-10-19T04:16:20.616Z,6.82
2022-10-19T04:18:47.506Z,7.93
2022-10-19T04:21:21.836Z,5.78
2022-10-19T04:23:48.851Z,9.80
2022-10-19T04:26:15.224Z,11.35
2022-10-19T04:28:41.683Z,4.30
2022-10-19T04:31:08.109Z,9.35
2022-10-19T04:33:34.846Z,11.27
2022-10-19T04:36:02.888Z,6.72
2022-10-19T04:38:29.776Z,4.35
2022-10-19T04:40:56.325Z,4.00
2022-10-19T04:43:23.101Z,5.32
2022-10-19T04:45:49.418Z,7.22
2022-10-19T04:48:15.734Z,11.27
2022-10-19T04:50:42.093Z,2.78
2022-10-19T04:53:08.523Z,6.35
2022-10-19T04:55:34.832Z,4.03
2022-10-19T04:58:01.253Z,8.82
2022-10-19T05:00:27.696Z,7.05
2022-10-19T05:02:54.037Z,4.47
2022-10-19T05:05:20.416Z,9.65
2022-10-19T05:07:48.947Z,4.30
2022-10-19T05:10:15.405Z,3.70
2022-10-19T05:12:41.818Z,3.75
2022-10-19T05:15:08.869Z,8.15
2022-10-19T05:17:35.784Z,7.95
2022-10-19T05:20:02.406Z,10.45
2022-10-19T05:22:29.441Z,7.32
2022-10-19T05:24:58.090Z,6.20
2022-10-19T05:27:24.777Z,2.92
2022-10-19T05:29:51.127Z,4.95
2022-10-19T05:32:17.443Z,4.90
2022-10-19T05:34:43.823Z,3.35
2022-10-19T05:37:10.210Z,3.00
2022-10-19T05:39:36.577Z,1.77
2022-10-19T05:42:03.132Z,5.80
2022-10-19T05:44:29.592Z,5.40
2022-10-19T05:46:56.049Z,3.55
2022-10-19T05:49:23.132Z,5.03
2022-10-19T05:51:50.110Z,3.75
2022-10-19T05:54:17.003Z,5.30
2022-10-19T05:56:44.363Z,4.88
2022-10-19T05:59:14.812Z,4.22
2022-10-19T06:01:41.433Z,6.00
2022-10-19T06:04:08.019Z,3.38
2022-10-19T06:06:34.595Z,9.52
2022-10-19T06:09:00.985Z,4.50
2022-10-19T06:11:30.420Z,3.63
2022-10-19T06:13:59.037Z,5.88
2022-10-19T06:16:27.059Z,5.88
2022-10-19T06:18:54.607Z,8.63
2022-10-19T06:21:24.173Z,3.03
2022-10-19T06:23:56.072Z,3.42
2022-10-19T06:26:23.586Z,5.55
2022-10-19T06:28:50.545Z,2.63
2022-10-19T06:31:17.573Z,2.10
2022-10-19T06:33:47.249Z,3.58
2022-10-19T06:36:21.100Z,2.90
2022-10-19T06:38:48.130Z,6.70
2022-10-19T06:41:16.501Z,1.50
2022-10-19T06:43:43.525Z,7.45
2022-10-19T06:46:15.612Z,5.63
2022-10-19T06:48:42.103Z,9.07
2022-10-19T06:51:08.963Z,2.53
2022-10-19T06:53:36.165Z,2.28
2022-10-19T06:56:05.020Z,4.80
2022-10-19T06:58:35.440Z,5.45
2022-10-19T07:01:02.482Z,4.90
2022-10-19T07:03:30.023Z,2.58
2022-10-19T07:05:59.333Z,5.72
2022-10-19T07:08:27.125Z,4.75
2022-10-19T07:10:55.454Z,5.20
2022-10-19T07:13:22.547Z,11.30
2022-10-19T07:15:48.906Z,4.97
2022-10-19T07:18:15.967Z,5.70
2022-10-19T07:20:42.382Z,6.70
2022-10-19T07:23:08.854Z,5.70
2022-10-19T07:25:36.410Z,3.83
2022-10-19T07:28:02.969Z,6.00
2022-10-19T07:30:29.316Z,6.20
2022-10-19T07:32:55.782Z,3.97
2022-10-19T07:35:22.201Z,7.10
2022-10-19T07:37:48.572Z,2.70
2022-10-19T07:40:15.032Z,6.45
2022-10-19T07:42:41.409Z,11.27
2022-10-19T07:45:07.954Z,7.57
2022-10-19T07:47:34.822Z,4.28
2022-10-19T07:50:01.581Z,4.38
2022-10-19T07:52:29.131Z,10.63
2022-10-19T07:54:56.275Z,5.57
2022-10-19T07:57:22.680Z,3.65
2022-10-19T07:59:49.052Z,9.13
2022-10-19T08:02:17.040Z,7.07
2022-10-19T08:05:02.248Z,3.78
2022-10-19T08:07:33.936Z,4.88
2022-10-19T08:10:00.352Z,2.83
2022-10-19T08:12:26.673Z,5.15
2022-10-19T08:14:54.019Z,7.80
2022-10-19T08:17:20.462Z,7.03
2022-10-19T08:19:47.043Z,2.97
2022-10-19T08:22:13.720Z,8.80
2022-10-19T08:24:40.095Z,5.82
2022-10-19T08:27:06.485Z,6.40
2022-10-19T08:29:32.843Z,5.03
2022-10-19T08:31:59.726Z,1.70
2022-10-19T08:34:26.333Z,5.78
2022-10-19T08:36:52.736Z,4.93
2022-10-19T08:39:19.216Z,6.45
2022-10-19T08:42:05.027Z,4.40
2022-10-19T08:44:52.791Z,3.53
2022-10-19T08:47:48.427Z,5.47
2022-10-19T08:50:22.325Z,3.30
2022-10-19T08:53:02.063Z,7.88
2022-10-19T08:55:41.375Z,6.07
2022-10-19T08:58:10.685Z,8.82
2022-10-19T09:00:56.860Z,4.38
2022-10-19T09:03:55.811Z,10.07
2022-10-19T09:06:34.850Z,4.80
2022-10-19T09:09:01.318Z,7.22
2022-10-19T09:11:32.541Z,5.00
2022-10-19T09:14:06.688Z,2.97
2022-10-19T09:16:34.916Z,5.95
2022-10-19T09:19:02.096Z,7.65
2022-10-19T09:21:47.469Z,4.65
2022-10-19T09:24:32.399Z,5.07
2022-10-19T09:27:01.586Z,4.72
2022-10-19T09:29:41.336Z,6.30
2022-10-19T09:32:21.898Z,4.07
2022-10-19T09:34:55.241Z,3.08
2022-10-19T09:37:26.226Z,6.22
2022-10-19T09:39:55.362Z,2.80
2022-10-19T09:42:33.891Z,6.50
2022-10-19T09:45:21.988Z,9.90
2022-10-19T09:47:48.958Z,6.38
2022-10-19T09:50:26.284Z,5.65
2022-10-19T09:52:56.155Z,5.85
2022-10-19T09:55:29.693Z,9.02
2022-10-19T09:58:22.264Z,5.38
2022-10-19T10:00:51.238Z,12.00
2022-10-19T10:03:36.056Z,5.43
2022-10-19T10:06:05.866Z,10.10
2022-10-19T10:08:36.588Z,6.28
2022-10-19T10:11:12.609Z,6.30
2022-10-19T10:13:48.275Z,9.90
2022-10-19T10:16:16.827Z,6.43
2022-10-19T10:18:49.374Z,6.60
2022-10-19T10:21:25.481Z,5.78
2022-10-19T10:24:16.617Z,5.72
2022-10-19T10:26:46.034Z,6.65
2022-10-19T10:29:39.801Z,7.53
2022-10-19T10:32:20.305Z,3.63
2022-10-19T10:34:58.534Z,7.28
2022-10-19T10:37:44.620Z,8.50
2022-10-19T10:40:34.568Z,7.63
2022-10-19T10:43:13.200Z,8.43
2022-10-19T10:45:46.708Z,3.58
2022-10-19T10:48:53.597Z,6.55
2022-10-19T10:51:34.672Z,8.13
2022-10-19T10:54:17.002Z,6.50
2022-10-19T10:56:45.342Z,5.75
2022-10-19T10:59:23.146Z,8.68
2022-10-19T11:02:03.374Z,6.03
2022-10-19T11:04:36.243Z,6.53
2022-10-19T11:07:21.993Z,6.03
2022-10-19T11:09:57.249Z,5.65
2022-10-19T11:12:39.889Z,7.38
2022-10-19T11:15:12.798Z,7.72
2022-10-19T11:17:48.112Z,3.72
2022-10-19T11:20:16.765Z,6.00
2022-10-19T11:22:53.026Z,5.10
2022-10-19T11:25:34.421Z,3.55
2022-10-19T11:28:27.838Z,5.43
2022-10-19T11:31:14.463Z,9.30
2022-10-19T11:34:03.468Z,3.08
2022-10-19T11:36:39.999Z,6.35
2022-10-19T11:39:40.682Z,6.57
2022-10-19T11:42:33.151Z,6.85
2022-10-19T11:45:09.938Z,6.03
2022-10-19T11:48:04.338Z,10.25
2022-10-19T11:50:49.712Z,7.05
2022-10-19T11:53:54.160Z,12.82
2022-10-19T11:57:02.576Z,2.75
2022-10-19T11:59:51.750Z,6.07
2022-10-19T12:02:45.663Z,10.00
2022-10-19T12:05:33.532Z,3.08
2022-10-19T12:08:16.254Z,2.53
2022-10-19T12:11:04.392Z,4.68
2022-10-19T12:13:42.359Z,5.03
2022-10-19T12:16:12.257Z,3.78
2022-10-19T12:18:52.046Z,3.47
2022-10-19T12:21:39.784Z,7.63
2022-10-19T12:24:14.528Z,3.50
2022-10-19T12:26:41.438Z,7.28
2022-10-19T12:29:17.332Z,5.05
2022-10-19T12:31:44.562Z,4.63
2022-10-19T12:34:37.893Z,3.97
2022-10-19T12:37:24.954Z,9.82
2022-10-19T12:40:14.648Z,2.15
2022-10-19T12:42:53.882Z,5.35
2022-10-19T12:45:26.280Z,8.85
2022-10-19T12:48:07.975Z,11.90
2022-10-19T12:50:49.508Z,9.43
2022-10-19T12:56:14.505Z,8.73
2022-10-19T12:58:47.711Z,6.65
2022-10-19T13:01:20.977Z,3.55
2022-10-19T13:03:51.276Z,8.32
2022-10-19T13:06:23.383Z,8.55
2022-10-19T13:08:52.871Z,8.25
2022-10-19T13:11:20.450Z,4.55
2022-10-19T13:13:53.459Z,4.13
2022-10-19T13:16:39.064Z,6.78
2022-10-19T13:19:14.607Z,5.15
2022-10-19T13:21:48.083Z,4.00
2022-10-19T13:24:23.518Z,4.97
2022-10-19T13:27:26.131Z,3.63
2022-10-19T13:29:52.896Z,3.40
2022-10-19T13:32:43.442Z,9.30
2022-10-19T13:35:23.601Z,2.47
2022-10-19T13:38:11.490Z,3.53
2022-10-19T13:40:41.340Z,3.63
2022-10-19T13:43:19.499Z,8.85
2022-10-19T13:46:07.529Z,10.88
2022-10-19T13:48:58.478Z,2.90
2022-10-19T13:51:49.743Z,10.30
2022-10-19T13:54:39.060Z,3.67
2022-10-19T13:57:26.756Z,5.22
2022-10-19T14:00:13.975Z,3.75
2022-10-19T14:02:56.201Z,5.30
2022-10-19T14:06:04.705Z,4.18
2022-10-19T14:09:11.847Z,8.52
2022-10-19T14:11:41.841Z,9.13
2022-10-19T14:14:10.972Z,6.93
2022-10-19T14:17:15.647Z,9.15
2022-10-19T14:19:43.124Z,7.43
2022-10-19T14:22:38.295Z,4.80
2022-10-19T14:25:16.126Z,2.75
2022-10-19T14:27:43.020Z,6.57
2022-10-19T14:30:28.054Z,4.47
2022-10-19T14:32:59.458Z,9.70
2022-10-19T14:35:31.969Z,6.32
2022-10-19T14:37:58.947Z,8.45
2022-10-19T14:40:28.787Z,7.95
2022-10-19T14:42:57.113Z,10.45
2022-10-19T14:45:32.030Z,4.07
2022-10-19T14:48:07.320Z,5.10
2022-10-19T14:50:42.548Z,3.30
2022-10-19T14:53:31.053Z,8.88
2022-10-19T14:56:02.043Z,1.73
2022-10-19T14:58:36.908Z,3.03
2022-10-19T15:01:03.389Z,3.92
2022-10-19T15:03:30.459Z,3.72
2022-10-19T15:06:02.594Z,6.53
2022-10-19T15:08:37.330Z,6.68
2022-10-19T15:11:05.525Z,6.55
2022-10-19T15:13:35.711Z,7.07
2022-10-19T15:16:02.094Z,5.18
2022-10-19T15:18:48.630Z,6.95
2022-10-19T15:21:21.409Z,5.82
2022-10-19T15:23:52.189Z,3.55
2022-10-19T15:26:24.424Z,3.42
2022-10-19T15:28:51.789Z,3.58
2022-10-19T15:31:27.987Z,6.25
2022-10-19T15:34:00.507Z,5.55
2022-10-19T15:36:28.854Z,3.58
2022-10-19T15:39:06.231Z,5.82
2022-10-19T15:41:44.623Z,3.63
2022-10-19T15:44:39.832Z,7.07
2022-10-19T15:47:19.570Z,6.57
2022-10-19T15:49:45.888Z,5.00
2022-10-19T15:52:23.897Z,5.47
2022-10-19T15:54:52.136Z,9.75
2022-10-19T15:57:37.083Z,8.65
2022-10-19T16:00:17.584Z,10.38
2022-10-19T16:02:44.591Z,9.20
2022-10-19T16:05:11.442Z,11.52
2022-10-19T16:07:40.164Z,9.90
2022-10-19T16:10:07.481Z,8.82
2022-10-19T16:12:34.011Z,9.38
2022-10-19T16:15:00.356Z,4.60
2022-10-19T16:17:27.023Z,9.27
2022-10-19T16:19:53.533Z,14.32
2022-10-19T16:22:20.046Z,13.23
2022-10-19T16:24:46.732Z,11.88
2022-10-19T16:27:15.141Z,10.23
2022-10-19T16:29:42.826Z,15.27
2022-10-19T16:32:09.542Z,12.32
2022-10-19T16:34:36.008Z,21.77
2022-10-19T16:37:05.737Z,15.95
2022-10-19T16:39:33.571Z,10.65
2022-10-19T16:42:00.237Z,14.82
2022-10-19T16:44:26.642Z,17.38
2022-10-19T16:46:53.017Z,22.27
2022-10-19T16:49:19.329Z,20.90
2022-10-19T16:51:45.791Z,26.23
2022-10-19T16:54:12.361Z,14.95
2022-10-19T16:56:45.178Z,25.27
2022-10-19T16:59:16.816Z,26.83
2022-10-19T17:01:44.476Z,23.10
2022-10-19T17:04:11.668Z,18.88
2022-10-19T17:06:38.781Z,17.95
2022-10-19T17:11:52.194Z,19.30
2022-10-19T17:14:18.647Z,22.38
2022-10-19T17:16:45.189Z,29.58
2022-10-19T17:19:11.923Z,22.92
2022-10-19T17:21:39.188Z,27.00
2022-10-19T17:24:07.317Z,24.80
2022-10-19T17:26:36.602Z,35.58
2022-10-19T17:29:04.011Z,16.17
2022-10-19T17:31:30.952Z,24.27
2022-10-19T17:33:58.434Z,24.27
2022-10-19T17:36:28.458Z,22.40
2022-10-19T17:38:57.163Z,20.33
2022-10-19T17:41:24.504Z,21.80
2022-10-19T17:43:51.940Z,28.58
2022-10-19T17:46:29.836Z,30.25
2022-10-19T17:48:57.267Z,22.40
2022-10-19T17:51:29.790Z,19.65
2022-10-19T17:53:58.999Z,19.75
2022-10-19T17:56:26.920Z,22.98
2022-10-19T17:58:53.635Z,21.40
2022-10-19T18:01:22.180Z,30.48
2022-10-19T18:03:49.625Z,25.33
2022-10-19T18:06:24.662Z,31.15
2022-10-19T18:08:53.951Z,25.15
2022-10-19T18:11:29.474Z,29.80
2022-10-19T18:13:59.365Z,23.73
2022-10-19T18:16:31.717Z,20.50
2022-10-19T18:18:59.746Z,24.17
2022-10-19T18:21:28.658Z,24.50
2022-10-19T18:23:57.325Z,25.45
2022-10-19T18:26:25.497Z,35.08
2022-10-19T18:28:53.519Z,29.80
2022-10-19T18:31:23.170Z,22.92
2022-10-19T18:33:58.657Z,28.02
2022-10-19T18:36:25.223Z,28.15
2022-10-19T18:38:53.621Z,25.15
2022-10-19T18:41:20.438Z,20.77
2022-10-19T18:43:55.794Z,37.33
